PABI/DJN METAR and TAF weather

Enter ICAO airport designator
Station Type Date Time Source
PABI METAR 2019/11/18 03:53 UTC NOAA

PABI 180353Z 00000KT 10SM FEW048 SCT100 BKN200 M21/M23 A2958 RMK AO2 SLP072 T12061233


Station Type Date Time Source
PABI Decoded METAR 2019/11/18 03:53 UTC NOAA

ALLEN ARMY AIRFIELD, AK, United States (PABI) 64-00N 145-43W 391M
Nov 17, 2019 - 10:53 PM EST / 2019.11.18 0353 UTC
Wind: Calm:0
Visibility: 10 mile(s):0
Sky conditions: mostly cloudy
Temperature: -5.1 F (-20.6 C)
Dew Point: -9.9 F (-23.3 C)
Relative Humidity: 78%
Pressure (altimeter): 29.58 in. Hg (1001 hPa)
ob: PABI 180353Z 00000KT 10SM FEW048 SCT100 BKN200 M21/M23 A2958 RMK AO2 SLP072 T12061233
cycle: 4

Station Type Date Time Source
PABI TAF 2019/11/16 06:25 UTC NOAA

TAF PABI 160600Z 1606/1712 09009KT 8000 -SN BKN030 620309 621202 QNH2942INS
TEMPO 1608/1611 2400 -SN BKN015 620159 621053
BECMG 1617/1618 11006KT 9999 NSW SCT013 BKN030 610309 QNH2935INS
BECMG 1707/1708 09006KT 4800 -SN BKN012 OVC030 620129 621023 QNH2932INS
TEMPO 1709/1712 2400 -SN BKN008 620089 629083 TXM11/1700Z TNM15/1614Z FOR MIL USE ONLY LAST NO
AMDS AFT 1606 NEXT 1814

Example: see airport list